sensor_id;sensor_type;location;lat;lon;timestamp;pressure;altitude;pressure_sealevel;temperature;humidity
68634;BME280;55625;47.072;22.192;2023-07-09T00:01:16;100129.16;;;15.20;95.70
68634;BME280;55625;47.072;22.192;2023-07-09T00:03:46;100129.16;;;15.20;95.45
68634;BME280;55625;47.072;22.192;2023-07-09T00:06:18;100133.78;;;15.17;95.41
68634;BME280;55625;47.072;22.192;2023-07-09T00:08:45;100123.28;;;15.14;95.53
68634;BME280;55625;47.072;22.192;2023-07-09T00:11:17;100127.41;;;15.13;95.53
68634;BME280;55625;47.072;22.192;2023-07-09T00:13:43;100127.25;;;15.17;95.98
68634;BME280;55625;47.072;22.192;2023-07-09T00:16:19;100130.59;;;15.15;95.46
68634;BME280;55625;47.072;22.192;2023-07-09T00:18:47;100128.06;;;15.17;95.74
68634;BME280;55625;47.072;22.192;2023-07-09T00:21:16;100140.75;;;15.16;95.20
68634;BME280;55625;47.072;22.192;2023-07-09T00:23:42;100135.19;;;15.13;95.50
68634;BME280;55625;47.072;22.192;2023-07-09T00:26:13;100142.03;;;15.06;95.64
68634;BME280;55625;47.072;22.192;2023-07-09T00:28:40;100134.41;;;15.03;96.37
68634;BME280;55625;47.072;22.192;2023-07-09T00:31:14;100138.34;;;14.97;96.65
68634;BME280;55625;47.072;22.192;2023-07-09T00:33:41;100132.31;;;14.95;96.59
68634;BME280;55625;47.072;22.192;2023-07-09T00:36:25;100134.38;;;14.94;96.90
68634;BME280;55625;47.072;22.192;2023-07-09T00:38:51;100129.91;;;14.84;97.39
68634;BME280;55625;47.072;22.192;2023-07-09T00:41:22;100129.75;;;14.87;96.69
68634;BME280;55625;47.072;22.192;2023-07-09T00:43:51;100134.38;;;14.85;97.82
68634;BME280;55625;47.072;22.192;2023-07-09T00:48:51;100141.19;;;14.87;97.86
68634;BME280;55625;47.072;22.192;2023-07-09T00:51:21;100139.13;;;14.88;97.75
68634;BME280;55625;47.072;22.192;2023-07-09T00:53:52;100130.06;;;14.89;97.69
68634;BME280;55625;47.072;22.192;2023-07-09T00:56:32;100133.41;;;14.88;97.11
68634;BME280;55625;47.072;22.192;2023-07-09T00:59:02;100134.03;;;14.83;98.07
68634;BME280;55625;47.072;22.192;2023-07-09T01:01:30;100138.66;;;14.80;98.35
68634;BME280;55625;47.072;22.192;2023-07-09T01:03:58;100134.66;;;14.78;98.68
68634;BME280;55625;47.072;22.192;2023-07-09T01:06:58;100133.88;;;14.77;99.12
68634;BME280;55625;47.072;22.192;2023-07-09T01:09:25;100126.41;;;14.80;98.04
68634;BME280;55625;47.072;22.192;2023-07-09T01:11:51;100132.75;;;14.75;98.19
68634;BME280;55625;47.072;22.192;2023-07-09T01:14:19;100128.47;;;14.70;99.09
68634;BME280;55625;47.072;22.192;2023-07-09T01:16:52;100130.19;;;14.68;99.39
68634;BME280;55625;47.072;22.192;2023-07-09T01:19:25;100135.91;;;14.68;98.96
68634;BME280;55625;47.072;22.192;2023-07-09T01:22:01;100134.19;;;14.70;99.26
68634;BME280;55625;47.072;22.192;2023-07-09T01:27:13;100140.81;;;14.67;100.00
68634;BME280;55625;47.072;22.192;2023-07-09T01:29:40;100142.88;;;14.67;100.00
68634;BME280;55625;47.072;22.192;2023-07-09T01:32:07;100138.91;;;14.64;100.00
68634;BME280;55625;47.072;22.192;2023-07-09T01:34:33;100141.28;;;14.66;100.00
68634;BME280;55625;47.072;22.192;2023-07-09T01:36:59;100137.16;;;14.67;100.00
68634;BME280;55625;47.072;22.192;2023-07-09T01:39:28;100137.31;;;14.63;100.00
68634;BME280;55625;47.072;22.192;2023-07-09T01:41:54;100141.50;;;14.71;100.00
68634;BME280;55625;47.072;22.192;2023-07-09T01:44:21;100132.56;;;14.69;100.00
68634;BME280;55625;47.072;22.192;2023-07-09T01:46:46;100143.66;;;14.67;100.00
68634;BME280;55625;47.072;22.192;2023-07-09T01:49:12;100149.38;;;14.67;100.00
68634;BME280;55625;47.072;22.192;2023-07-09T01:51:40;100141.97;;;14.70;100.00
68634;BME280;55625;47.072;22.192;2023-07-09T01:54:06;100141.59;;;14.68;100.00
68634;BME280;55625;47.072;22.192;2023-07-09T01:56:32;100138.16;;;14.73;100.00
68634;BME280;55625;47.072;22.192;2023-07-09T01:59:00;100156.41;;;14.75;100.00
68634;BME280;55625;47.072;22.192;2023-07-09T02:01:31;100145.25;;;14.68;100.00
68634;BME280;55625;47.072;22.192;2023-07-09T02:03:59;100156.69;;;14.68;100.00
68634;BME280;55625;47.072;22.192;2023-07-09T02:06:25;100152.72;;;14.66;100.00
68634;BME280;55625;47.072;22.192;2023-07-09T02:08:51;100155.25;;;14.64;100.00
68634;BME280;55625;47.072;22.192;2023-07-09T02:11:16;100154.75;;;14.56;100.00
68634;BME280;55625;47.072;22.192;2023-07-09T02:13:42;100155.22;;;14.54;100.00
68634;BME280;55625;47.072;22.192;2023-07-09T02:16:08;100159.50;;;14.50;100.00
68634;BME280;55625;47.072;22.192;2023-07-09T02:18:34;100162.03;;;14.48;100.00
68634;BME280;55625;47.072;22.192;2023-07-09T02:21:00;100158.84;;;14.46;100.00
68634;BME280;55625;47.072;22.192;2023-07-09T02:23:27;100164.28;;;14.31;100.00
68634;BME280;55625;47.072;22.192;2023-07-09T02:25:54;100162.69;;;14.30;100.00
68634;BME280;55625;47.072;22.192;2023-07-09T02:28:19;100167.09;;;14.22;100.00
68634;BME280;55625;47.072;22.192;2023-07-09T02:30:45;100169.31;;;14.18;100.00
68634;BME280;55625;47.072;22.192;2023-07-09T02:33:11;100166.28;;;14.12;100.00
68634;BME280;55625;47.072;22.192;2023-07-09T02:35:37;100167.22;;;14.09;100.00
68634;BME280;55625;47.072;22.192;2023-07-09T02:38:04;100171.91;;;14.03;100.00
68634;BME280;55625;47.072;22.192;2023-07-09T02:40:30;100166.19;;;14.03;100.00
68634;BME280;55625;47.072;22.192;2023-07-09T02:42:56;100162.22;;;14.01;100.00
68634;BME280;55625;47.072;22.192;2023-07-09T02:45:22;100165.53;;;13.99;100.00
68634;BME280;55625;47.072;22.192;2023-07-09T02:47:48;100164.75;;;13.98;100.00
68634;BME280;55625;47.072;22.192;2023-07-09T02:50:15;100168.22;;;13.93;100.00
68634;BME280;55625;47.072;22.192;2023-07-09T02:52:41;100169.81;;;13.94;100.00
68634;BME280;55625;47.072;22.192;2023-07-09T02:55:08;100178.69;;;13.96;100.00
68634;BME280;55625;47.072;22.192;2023-07-09T02:57:34;100171.34;;;13.86;100.00
68634;BME280;55625;47.072;22.192;2023-07-09T03:00:00;100178.19;;;13.89;100.00
68634;BME280;55625;47.072;22.192;2023-07-09T03:02:26;100173.13;;;13.93;100.00
68634;BME280;55625;47.072;22.192;2023-07-09T03:04:52;100167.28;;;13.96;100.00
68634;BME280;55625;47.072;22.192;2023-07-09T03:07:18;100180.94;;;14.02;100.00
68634;BME280;55625;47.072;22.192;2023-07-09T03:09:44;100186.00;;;13.97;100.00
68634;BME280;55625;47.072;22.192;2023-07-09T03:12:10;100179.03;;;13.98;100.00
68634;BME280;55625;47.072;22.192;2023-07-09T03:14:36;100179.34;;;14.01;100.00
68634;BME280;55625;47.072;22.192;2023-07-09T03:17:02;100179.81;;;13.99;100.00
68634;BME280;55625;47.072;22.192;2023-07-09T03:19:28;100185.06;;;14.01;100.00
68634;BME280;55625;47.072;22.192;2023-07-09T03:21:54;100184.72;;;13.98;100.00
68634;BME280;55625;47.072;22.192;2023-07-09T03:24:20;100178.22;;;13.98;100.00
68634;BME280;55625;47.072;22.192;2023-07-09T03:26:46;100173.63;;;14.01;100.00
68634;BME280;55625;47.072;22.192;2023-07-09T03:29:13;100184.59;;;14.02;100.00
68634;BME280;55625;47.072;22.192;2023-07-09T03:31:39;100186.41;;;14.09;100.00
68634;BME280;55625;47.072;22.192;2023-07-09T03:34:05;100168.34;;;14.12;100.00
68634;BME280;55625;47.072;22.192;2023-07-09T03:36:31;100167.09;;;14.22;99.87
68634;BME280;55625;47.072;22.192;2023-07-09T03:38:57;100175.69;;;14.22;99.73
68634;BME280;55625;47.072;22.192;2023-07-09T03:41:22;100172.50;;;14.20;99.84
68634;BME280;55625;47.072;22.192;2023-07-09T03:43:48;100167.91;;;14.22;99.59
68634;BME280;55625;47.072;22.192;2023-07-09T03:46:16;100165.22;;;14.28;99.06
68634;BME280;55625;47.072;22.192;2023-07-09T03:48:42;100168.28;;;14.34;98.95
68634;BME280;55625;47.072;22.192;2023-07-09T03:51:07;100173.84;;;14.37;99.58
68634;BME280;55625;47.072;22.192;2023-07-09T03:53:33;100180.91;;;14.45;99.64
68634;BME280;55625;47.072;22.192;2023-07-09T03:55:59;100174.09;;;14.52;100.00
68634;BME280;55625;47.072;22.192;2023-07-09T03:58:26;100183.50;;;14.62;99.33
68634;BME280;55625;47.072;22.192;2023-07-09T04:00:53;100195.41;;;14.69;99.05
68634;BME280;55625;47.072;22.192;2023-07-09T04:03:20;100181.97;;;14.79;98.74
68634;BME280;55625;47.072;22.192;2023-07-09T04:05:47;100189.63;;;14.91;97.89
68634;BME280;55625;47.072;22.192;2023-07-09T04:08:13;100182.69;;;15.01;97.55
68634;BME280;55625;47.072;22.192;2023-07-09T04:10:39;100185.06;;;15.21;96.29
68634;BME280;55625;47.072;22.192;2023-07-09T04:13:05;100189.72;;;15.37;95.53
68634;BME280;55625;47.072;22.192;2023-07-09T04:15:31;100185.25;;;15.54;94.64
68634;BME280;55625;47.072;22.192;2023-07-09T04:17:57;100180.84;;;15.71;93.66
68634;BME280;55625;47.072;22.192;2023-07-09T04:20:23;100183.03;;;15.86;92.69
68634;BME280;55625;47.072;22.192;2023-07-09T04:22:49;100189.09;;;15.97;92.93
68634;BME280;55625;47.072;22.192;2023-07-09T04:25:15;100185.38;;;16.14;91.93
68634;BME280;55625;47.072;22.192;2023-07-09T04:27:42;100191.41;;;16.26;91.17
68634;BME280;55625;47.072;22.192;2023-07-09T04:30:13;100198.34;;;16.43;89.90
68634;BME280;55625;47.072;22.192;2023-07-09T04:32:42;100193.34;;;16.62;89.45
68634;BME280;55625;47.072;22.192;2023-07-09T04:35:10;100197.00;;;16.71;88.52
68634;BME280;55625;47.072;22.192;2023-07-09T04:37:38;100203.97;;;16.80;88.10
68634;BME280;55625;47.072;22.192;2023-07-09T04:40:06;100201.38;;;16.91;87.78
68634;BME280;55625;47.072;22.192;2023-07-09T04:42:32;100195.41;;;17.03;87.28
68634;BME280;55625;47.072;22.192;2023-07-09T04:44:58;100200.75;;;17.11;87.44
68634;BME280;55625;47.072;22.192;2023-07-09T04:47:24;100210.34;;;17.31;85.79
68634;BME280;55625;47.072;22.192;2023-07-09T04:49:51;100209.44;;;17.49;85.79
68634;BME280;55625;47.072;22.192;2023-07-09T04:52:17;100208.28;;;17.56;85.39
68634;BME280;55625;47.072;22.192;2023-07-09T04:54:42;100209.78;;;17.66;85.16
68634;BME280;55625;47.072;22.192;2023-07-09T04:57:12;100203.97;;;17.75;83.87
68634;BME280;55625;47.072;22.192;2023-07-09T04:59:38;100203.13;;;17.84;84.10
68634;BME280;55625;47.072;22.192;2023-07-09T05:02:04;100207.41;;;18.03;82.93
68634;BME280;55625;47.072;22.192;2023-07-09T05:04:31;100208.22;;;18.18;82.59
68634;BME280;55625;47.072;22.192;2023-07-09T05:06:58;100210.56;;;18.35;81.63
68634;BME280;55625;47.072;22.192;2023-07-09T05:09:24;100209.91;;;18.40;80.51
68634;BME280;55625;47.072;22.192;2023-07-09T05:11:50;100214.53;;;18.52;80.26
68634;BME280;55625;47.072;22.192;2023-07-09T05:14:17;100209.47;;;18.61;78.56
68634;BME280;55625;47.072;22.192;2023-07-09T05:16:44;100212.16;;;18.80;78.47
68634;BME280;55625;47.072;22.192;2023-07-09T05:19:11;100204.50;;;18.91;77.33
68634;BME280;55625;47.072;22.192;2023-07-09T05:21:37;100210.28;;;19.12;77.44
68634;BME280;55625;47.072;22.192;2023-07-09T05:24:04;100217.56;;;19.28;76.29
68634;BME280;55625;47.072;22.192;2023-07-09T05:26:30;100211.31;;;19.49;75.86
68634;BME280;55625;47.072;22.192;2023-07-09T05:28:56;100210.00;;;19.65;75.85
68634;BME280;55625;47.072;22.192;2023-07-09T05:31:23;100206.44;;;19.76;74.04
68634;BME280;55625;47.072;22.192;2023-07-09T05:33:48;100201.81;;;19.84;71.36
68634;BME280;55625;47.072;22.192;2023-07-09T05:36:14;100209.59;;;19.98;72.27
68634;BME280;55625;47.072;22.192;2023-07-09T05:38:44;100205.34;;;20.20;72.03
68634;BME280;55625;47.072;22.192;2023-07-09T05:41:12;100198.53;;;20.43;70.13
68634;BME280;55625;47.072;22.192;2023-07-09T05:43:38;100203.38;;;20.57;68.88
68634;BME280;55625;47.072;22.192;2023-07-09T05:46:05;100198.44;;;20.63;68.14
68634;BME280;55625;47.072;22.192;2023-07-09T05:48:31;100195.59;;;20.69;66.70
68634;BME280;55625;47.072;22.192;2023-07-09T05:50:57;100200.13;;;20.81;66.93
68634;BME280;55625;47.072;22.192;2023-07-09T05:53:23;100205.50;;;20.94;66.90
68634;BME280;55625;47.072;22.192;2023-07-09T05:55:54;100190.56;;;21.01;65.88
68634;BME280;55625;47.072;22.192;2023-07-09T05:58:20;100200.66;;;21.17;65.04
68634;BME280;55625;47.072;22.192;2023-07-09T06:00:46;100195.25;;;21.35;66.79
68634;BME280;55625;47.072;22.192;2023-07-09T06:03:18;100200.88;;;21.56;65.21
68634;BME280;55625;47.072;22.192;2023-07-09T06:05:43;100214.63;;;21.78;64.13
68634;BME280;55625;47.072;22.192;2023-07-09T06:08:09;100207.31;;;21.99;63.55
68634;BME280;55625;47.072;22.192;2023-07-09T06:10:35;100209.25;;;22.19;62.86
68634;BME280;55625;47.072;22.192;2023-07-09T06:13:01;100210.34;;;22.38;62.15
68634;BME280;55625;47.072;22.192;2023-07-09T06:15:26;100206.13;;;22.61;64.23
68634;BME280;55625;47.072;22.192;2023-07-09T06:17:52;100204.31;;;22.86;62.72
68634;BME280;55625;47.072;22.192;2023-07-09T06:20:18;100201.91;;;23.07;61.31
68634;BME280;55625;47.072;22.192;2023-07-09T06:22:44;100196.59;;;23.22;60.09
68634;BME280;55625;47.072;22.192;2023-07-09T06:25:10;100206.59;;;23.38;60.10
68634;BME280;55625;47.072;22.192;2023-07-09T06:27:35;100204.94;;;23.54;57.95
68634;BME280;55625;47.072;22.192;2023-07-09T06:30:01;100198.06;;;23.68;57.36
68634;BME280;55625;47.072;22.192;2023-07-09T06:32:27;100200.75;;;23.61;56.12
68634;BME280;55625;47.072;22.192;2023-07-09T06:34:53;100199.06;;;23.76;57.19
68634;BME280;55625;47.072;22.192;2023-07-09T06:37:19;100190.06;;;23.91;57.43
68634;BME280;55625;47.072;22.192;2023-07-09T06:39:45;100187.56;;;24.06;54.38
68634;BME280;55625;47.072;22.192;2023-07-09T06:42:11;100198.84;;;24.21;53.40
68634;BME280;55625;47.072;22.192;2023-07-09T06:44:37;100198.72;;;24.38;51.59
68634;BME280;55625;47.072;22.192;2023-07-09T06:47:03;100191.81;;;24.46;52.72
68634;BME280;55625;47.072;22.192;2023-07-09T06:49:28;100191.69;;;24.63;52.38
68634;BME280;55625;47.072;22.192;2023-07-09T06:51:54;100201.22;;;24.88;52.56
68634;BME280;55625;47.072;22.192;2023-07-09T06:54:20;100202.50;;;25.23;52.30
68634;BME280;55625;47.072;22.192;2023-07-09T06:56:46;100195.56;;;25.50;48.73
68634;BME280;55625;47.072;22.192;2023-07-09T06:59:12;100190.09;;;25.65;46.58
68634;BME280;55625;47.072;22.192;2023-07-09T07:01:38;100199.44;;;25.83;45.82
68634;BME280;55625;47.072;22.192;2023-07-09T07:04:04;100195.56;;;25.93;46.03
68634;BME280;55625;47.072;22.192;2023-07-09T07:06:30;100203.91;;;26.21;46.32
68634;BME280;55625;47.072;22.192;2023-07-09T07:08:56;100206.88;;;26.53;46.16
68634;BME280;55625;47.072;22.192;2023-07-09T07:11:22;100201.59;;;26.84;44.49
68634;BME280;55625;47.072;22.192;2023-07-09T07:13:48;100207.94;;;27.01;45.40
68634;BME280;55625;47.072;22.192;2023-07-09T07:16:17;100193.84;;;27.18;43.87
68634;BME280;55625;47.072;22.192;2023-07-09T07:18:42;100195.66;;;27.48;45.87
68634;BME280;55625;47.072;22.192;2023-07-09T07:21:08;100197.09;;;27.81;45.92
68634;BME280;55625;47.072;22.192;2023-07-09T07:23:34;100192.41;;;27.78;43.59
68634;BME280;55625;47.072;22.192;2023-07-09T07:26:00;100196.88;;;27.39;45.20
68634;BME280;55625;47.072;22.192;2023-07-09T07:28:26;100196.19;;;27.07;44.81
68634;BME280;55625;47.072;22.192;2023-07-09T07:31:03;100193.84;;;26.73;46.37
68634;BME280;55625;47.072;22.192;2023-07-09T07:33:29;100200.09;;;26.64;46.72
68634;BME280;55625;47.072;22.192;2023-07-09T07:35:55;100203.69;;;26.70;46.43
68634;BME280;55625;47.072;22.192;2023-07-09T07:38:21;100200.13;;;26.77;46.45
68634;BME280;55625;47.072;22.192;2023-07-09T07:40:47;100202.59;;;26.86;46.13
68634;BME280;55625;47.072;22.192;2023-07-09T07:43:13;100204.84;;;26.93;47.13
68634;BME280;55625;47.072;22.192;2023-07-09T07:45:43;100195.28;;;27.12;45.77
68634;BME280;55625;47.072;22.192;2023-07-09T07:48:09;100194.63;;;27.45;45.78
68634;BME280;55625;47.072;22.192;2023-07-09T07:50:35;100199.34;;;27.75;44.25
68634;BME280;55625;47.072;22.192;2023-07-09T07:53:02;100192.59;;;27.93;42.23
68634;BME280;55625;47.072;22.192;2023-07-09T07:55:28;100203.22;;;28.17;41.02
68634;BME280;55625;47.072;22.192;2023-07-09T07:57:53;100197.22;;;28.36;42.79
68634;BME280;55625;47.072;22.192;2023-07-09T08:00:19;100192.84;;;28.63;42.42
68634;BME280;55625;47.072;22.192;2023-07-09T08:02:45;100199.91;;;28.89;40.68
68634;BME280;55625;47.072;22.192;2023-07-09T08:05:11;100188.56;;;29.06;40.66
68634;BME280;55625;47.072;22.192;2023-07-09T08:07:37;100191.22;;;29.25;41.49
68634;BME280;55625;47.072;22.192;2023-07-09T08:10:03;100181.94;;;29.34;41.03
68634;BME280;55625;47.072;22.192;2023-07-09T08:12:30;100187.56;;;29.53;41.90
68634;BME280;55625;47.072;22.192;2023-07-09T08:14:55;100179.00;;;29.62;41.78
68634;BME280;55625;47.072;22.192;2023-07-09T08:17:21;100188.25;;;29.74;42.43
68634;BME280;55625;47.072;22.192;2023-07-09T08:19:51;100190.47;;;29.89;40.44
68634;BME280;55625;47.072;22.192;2023-07-09T08:22:17;100179.44;;;30.03;39.73
68634;BME280;55625;47.072;22.192;2023-07-09T08:24:46;100177.34;;;30.18;37.14
68634;BME280;55625;47.072;22.192;2023-07-09T08:27:12;100183.16;;;30.03;39.16
68634;BME280;55625;47.072;22.192;2023-07-09T08:29:40;100171.88;;;30.22;39.30
68634;BME280;55625;47.072;22.192;2023-07-09T08:32:11;100181.31;;;30.44;39.62
68634;BME280;55625;47.072;22.192;2023-07-09T08:34:39;100182.50;;;30.48;37.71
68634;BME280;55625;47.072;22.192;2023-07-09T08:37:09;100181.91;;;30.42;37.08
68634;BME280;55625;47.072;22.192;2023-07-09T08:39:35;100178.38;;;30.44;36.94
68634;BME280;55625;47.072;22.192;2023-07-09T08:42:11;100176.69;;;30.64;39.63
68634;BME280;55625;47.072;22.192;2023-07-09T08:48:29;100175.13;;;31.08;37.11
68634;BME280;55625;47.072;22.192;2023-07-09T08:51:04;100168.69;;;30.95;35.24
68634;BME280;55625;47.072;22.192;2023-07-09T08:53:44;100179.44;;;30.92;36.29
68634;BME280;55625;47.072;22.192;2023-07-09T08:56:13;100168.28;;;31.21;34.51
68634;BME280;55625;47.072;22.192;2023-07-09T08:58:41;100162.22;;;31.34;35.45
68634;BME280;55625;47.072;22.192;2023-07-09T09:01:32;100168.81;;;31.58;34.63
68634;BME280;55625;47.072;22.192;2023-07-09T09:04:31;100168.25;;;31.44;32.55
68634;BME280;55625;47.072;22.192;2023-07-09T09:07:19;100158.44;;;31.64;32.71
68634;BME280;55625;47.072;22.192;2023-07-09T09:09:56;100170.72;;;31.86;34.27
68634;BME280;55625;47.072;22.192;2023-07-09T09:12:38;100170.63;;;32.01;32.98
68634;BME280;55625;47.072;22.192;2023-07-09T09:15:16;100172.91;;;32.25;31.80
68634;BME280;55625;47.072;22.192;2023-07-09T09:17:43;100165.81;;;32.28;31.71
68634;BME280;55625;47.072;22.192;2023-07-09T09:20:22;100160.25;;;32.40;31.60
68634;BME280;55625;47.072;22.192;2023-07-09T09:23:13;100164.53;;;32.47;33.55
68634;BME280;55625;47.072;22.192;2023-07-09T09:25:44;100147.09;;;32.49;31.00
68634;BME280;55625;47.072;22.192;2023-07-09T09:28:13;100154.53;;;32.50;32.71
68634;BME280;55625;47.072;22.192;2023-07-09T09:30:39;100155.31;;;32.50;31.64
68634;BME280;55625;47.072;22.192;2023-07-09T09:33:09;100150.94;;;32.59;32.36
68634;BME280;55625;47.072;22.192;2023-07-09T09:35:42;100150.25;;;32.68;30.48
68634;BME280;55625;47.072;22.192;2023-07-09T09:38:18;100147.84;;;32.74;30.85
68634;BME280;55625;47.072;22.192;2023-07-09T09:40:44;100153.56;;;32.72;31.49
68634;BME280;55625;47.072;22.192;2023-07-09T09:43:17;100162.94;;;32.13;29.98
68634;BME280;55625;47.072;22.192;2023-07-09T09:45:47;100158.59;;;32.22;31.62
68634;BME280;55625;47.072;22.192;2023-07-09T09:48:30;100158.81;;;32.16;30.38
68634;BME280;55625;47.072;22.192;2023-07-09T09:50:57;100153.59;;;32.39;30.53
68634;BME280;55625;47.072;22.192;2023-07-09T09:53:29;100152.03;;;32.38;29.55
68634;BME280;55625;47.072;22.192;2023-07-09T09:55:56;100149.00;;;32.54;30.81
68634;BME280;55625;47.072;22.192;2023-07-09T09:58:29;100154.03;;;32.61;30.55
68634;BME280;55625;47.072;22.192;2023-07-09T10:00:57;100148.28;;;32.46;31.36
68634;BME280;55625;47.072;22.192;2023-07-09T10:03:36;100144.19;;;32.41;31.62
68634;BME280;55625;47.072;22.192;2023-07-09T10:06:19;100149.06;;;32.46;30.81
68634;BME280;55625;47.072;22.192;2023-07-09T10:12:13;100153.78;;;32.01;31.94
68634;BME280;55625;47.072;22.192;2023-07-09T10:17:39;100145.69;;;32.17;30.72
68634;BME280;55625;47.072;22.192;2023-07-09T10:20:24;100142.19;;;32.11;33.55
68634;BME280;55625;47.072;22.192;2023-07-09T10:23:26;100140.88;;;32.37;33.44
68634;BME280;55625;47.072;22.192;2023-07-09T10:26:13;100129.50;;;32.66;30.61
68634;BME280;55625;47.072;22.192;2023-07-09T10:32:16;100127.59;;;32.61;31.66
68634;BME280;55625;47.072;22.192;2023-07-09T10:35:00;100133.19;;;32.49;32.30
68634;BME280;55625;47.072;22.192;2023-07-09T10:41:04;100132.00;;;31.64;32.38
68634;BME280;55625;47.072;22.192;2023-07-09T10:44:06;100136.81;;;31.22;31.62
68634;BME280;55625;47.072;22.192;2023-07-09T10:46:40;100135.84;;;30.73;33.18
68634;BME280;55625;47.072;22.192;2023-07-09T10:49:13;100124.69;;;30.56;32.65
68634;BME280;55625;47.072;22.192;2023-07-09T10:57:52;100109.19;;;31.40;31.05
68634;BME280;55625;47.072;22.192;2023-07-09T11:00:22;100105.97;;;31.68;30.45
68634;BME280;55625;47.072;22.192;2023-07-09T11:02:59;100110.94;;;31.98;31.04
68634;BME280;55625;47.072;22.192;2023-07-09T11:05:26;100110.66;;;32.11;30.27
68634;BME280;55625;47.072;22.192;2023-07-09T11:08:07;100111.59;;;31.81;29.98
68634;BME280;55625;47.072;22.192;2023-07-09T11:10:44;100108.66;;;31.26;29.87
68634;BME280;55625;47.072;22.192;2023-07-09T11:13:14;100109.69;;;30.68;32.02
68634;BME280;55625;47.072;22.192;2023-07-09T11:15:49;100098.16;;;30.70;33.36
68634;BME280;55625;47.072;22.192;2023-07-09T11:18:32;100098.50;;;31.04;32.27
68634;BME280;55625;47.072;22.192;2023-07-09T11:21:23;100098.28;;;31.88;31.35
68634;BME280;55625;47.072;22.192;2023-07-09T11:23:53;100106.22;;;32.03;32.97
68634;BME280;55625;47.072;22.192;2023-07-09T11:26:29;100099.50;;;32.10;31.59
68634;BME280;55625;47.072;22.192;2023-07-09T11:31:44;100094.16;;;32.24;31.26
68634;BME280;55625;47.072;22.192;2023-07-09T11:36:59;100095.28;;;32.86;30.43
68634;BME280;55625;47.072;22.192;2023-07-09T11:39:30;100095.97;;;32.69;30.60
68634;BME280;55625;47.072;22.192;2023-07-09T11:41:58;100087.28;;;32.54;30.14
68634;BME280;55625;47.072;22.192;2023-07-09T11:44:33;100080.03;;;32.80;30.25
68634;BME280;55625;47.072;22.192;2023-07-09T11:47:28;100083.84;;;32.65;31.34
68634;BME280;55625;47.072;22.192;2023-07-09T11:52:58;100078.03;;;32.32;31.04
68634;BME280;55625;47.072;22.192;2023-07-09T11:55:44;100082.53;;;32.33;31.68
68634;BME280;55625;47.072;22.192;2023-07-09T11:58:16;100079.72;;;32.43;29.90
68634;BME280;55625;47.072;22.192;2023-07-09T12:00:54;100083.75;;;32.30;31.76
68634;BME280;55625;47.072;22.192;2023-07-09T12:03:34;100072.63;;;32.21;31.38
68634;BME280;55625;47.072;22.192;2023-07-09T12:06:23;100092.53;;;31.98;30.05
68634;BME280;55625;47.072;22.192;2023-07-09T12:08:51;100071.94;;;31.65;31.02
68634;BME280;55625;47.072;22.192;2023-07-09T12:11:32;100063.47;;;31.77;30.35
68634;BME280;55625;47.072;22.192;2023-07-09T12:14:14;100066.69;;;31.56;29.60
68634;BME280;55625;47.072;22.192;2023-07-09T12:16:46;100071.38;;;31.59;32.80
68634;BME280;55625;47.072;22.192;2023-07-09T12:19:16;100063.81;;;31.89;28.62
68634;BME280;55625;47.072;22.192;2023-07-09T12:21:46;100052.94;;;32.06;30.58
68634;BME280;55625;47.072;22.192;2023-07-09T12:24:26;100046.28;;;32.06;31.47
68634;BME280;55625;47.072;22.192;2023-07-09T12:27:14;100041.00;;;32.04;30.54
68634;BME280;55625;47.072;22.192;2023-07-09T12:29:42;100049.28;;;32.23;30.11
68634;BME280;55625;47.072;22.192;2023-07-09T12:32:14;100037.44;;;32.38;29.28
68634;BME280;55625;47.072;22.192;2023-07-09T12:34:40;100036.47;;;32.36;27.61
68634;BME280;55625;47.072;22.192;2023-07-09T12:37:15;100042.44;;;32.28;29.54
68634;BME280;55625;47.072;22.192;2023-07-09T12:39:47;100037.59;;;32.65;28.68
68634;BME280;55625;47.072;22.192;2023-07-09T12:42:30;100043.03;;;32.69;28.54
68634;BME280;55625;47.072;22.192;2023-07-09T12:44:56;100034.72;;;32.58;28.15
68634;BME280;55625;47.072;22.192;2023-07-09T12:47:24;100031.03;;;32.57;29.69
68634;BME280;55625;47.072;22.192;2023-07-09T12:49:51;100026.78;;;32.68;30.39
68634;BME280;55625;47.072;22.192;2023-07-09T12:52:25;100020.28;;;32.94;29.14
68634;BME280;55625;47.072;22.192;2023-07-09T12:54:59;100019.06;;;32.97;29.53
68634;BME280;55625;47.072;22.192;2023-07-09T12:57:27;100016.66;;;33.21;29.17
68634;BME280;55625;47.072;22.192;2023-07-09T12:59:55;100016.66;;;33.21;29.71
68634;BME280;55625;47.072;22.192;2023-07-09T13:02:24;100012.75;;;33.01;28.79
68634;BME280;55625;47.072;22.192;2023-07-09T13:05:00;100019.47;;;32.77;28.02
68634;BME280;55625;47.072;22.192;2023-07-09T13:07:33;100008.59;;;32.87;29.14
68634;BME280;55625;47.072;22.192;2023-07-09T13:10:21;100009.28;;;32.95;27.94
68634;BME280;55625;47.072;22.192;2023-07-09T13:12:50;100003.81;;;33.26;28.30
68634;BME280;55625;47.072;22.192;2023-07-09T13:15:38;100001.34;;;33.40;27.64
68634;BME280;55625;47.072;22.192;2023-07-09T13:18:07;100000.53;;;33.22;28.22
68634;BME280;55625;47.072;22.192;2023-07-09T13:20:39;99991.91;;;32.89;28.31
68634;BME280;55625;47.072;22.192;2023-07-09T13:25:46;99993.94;;;32.62;28.36
68634;BME280;55625;47.072;22.192;2023-07-09T13:28:22;99996.25;;;32.21;28.36
68634;BME280;55625;47.072;22.192;2023-07-09T13:30:59;99993.72;;;32.42;29.38